sensor_id;sensor_type;location;lat;lon;timestamp;P1;durP1;ratioP1;P2;durP2;ratioP2
7177;SDS011;3630;42.146;24.756;2023-03-01T00:00:03;4.90;;;4.43;;
7177;SDS011;3630;42.146;24.756;2023-03-01T00:02:33;5.20;;;4.70;;
7177;SDS011;3630;42.146;24.756;2023-03-01T00:05:00;5.50;;;5.00;;
7177;SDS011;3630;42.146;24.756;2023-03-01T00:07:27;6.60;;;5.80;;
7177;SDS011;3630;42.146;24.756;2023-03-01T00:09:54;6.23;;;5.63;;
7177;SDS011;3630;42.146;24.756;2023-03-01T00:12:21;5.90;;;5.37;;
7177;SDS011;3630;42.146;24.756;2023-03-01T00:14:47;6.10;;;5.60;;
7177;SDS011;3630;42.146;24.756;2023-03-01T00:17:14;6.03;;;5.53;;
7177;SDS011;3630;42.146;24.756;2023-03-01T00:19:43;6.83;;;5.97;;
7177;SDS011;3630;42.146;24.756;2023-03-01T00:22:10;7.50;;;5.80;;
7177;SDS011;3630;42.146;24.756;2023-03-01T00:24:37;5.50;;;5.00;;
7177;SDS011;3630;42.146;24.756;2023-03-01T00:27:03;4.77;;;4.37;;
7177;SDS011;3630;42.146;24.756;2023-03-01T00:29:30;4.87;;;4.47;;
7177;SDS011;3630;42.146;24.756;2023-03-01T00:31:57;4.73;;;4.33;;
7177;SDS011;3630;42.146;24.756;2023-03-01T00:34:24;5.50;;;4.83;;
7177;SDS011;3630;42.146;24.756;2023-03-01T00:36:52;5.30;;;4.90;;
7177;SDS011;3630;42.146;24.756;2023-03-01T00:39:19;4.97;;;4.57;;
7177;SDS011;3630;42.146;24.756;2023-03-01T00:41:45;5.80;;;4.67;;
7177;SDS011;3630;42.146;24.756;2023-03-01T00:44:12;4.70;;;4.30;;
7177;SDS011;3630;42.146;24.756;2023-03-01T00:46:39;4.90;;;4.50;;
7177;SDS011;3630;42.146;24.756;2023-03-01T00:49:06;4.77;;;4.37;;
7177;SDS011;3630;42.146;24.756;2023-03-01T00:51:33;5.40;;;4.90;;
7177;SDS011;3630;42.146;24.756;2023-03-01T00:54:01;5.00;;;4.50;;
7177;SDS011;3630;42.146;24.756;2023-03-01T00:56:28;4.95;;;4.55;;
7177;SDS011;3630;42.146;24.756;2023-03-01T00:58:56;4.80;;;4.50;;
7177;SDS011;3630;42.146;24.756;2023-03-01T01:01:23;5.73;;;4.73;;
7177;SDS011;3630;42.146;24.756;2023-03-01T01:03:53;4.63;;;4.23;;
7177;SDS011;3630;42.146;24.756;2023-03-01T01:06:22;3.93;;;3.63;;
7177;SDS011;3630;42.146;24.756;2023-03-01T01:08:50;4.20;;;3.80;;
7177;SDS011;3630;42.146;24.756;2023-03-01T01:11:19;4.50;;;4.20;;
7177;SDS011;3630;42.146;24.756;2023-03-01T01:13:47;4.67;;;4.27;;
7177;SDS011;3630;42.146;24.756;2023-03-01T01:16:14;5.27;;;4.60;;
7177;SDS011;3630;42.146;24.756;2023-03-01T01:18:42;4.10;;;3.80;;
7177;SDS011;3630;42.146;24.756;2023-03-01T01:21:09;4.90;;;4.50;;
7177;SDS011;3630;42.146;24.756;2023-03-01T01:23:38;4.27;;;3.87;;
7177;SDS011;3630;42.146;24.756;2023-03-01T01:26:06;4.60;;;4.10;;
7177;SDS011;3630;42.146;24.756;2023-03-01T01:28:35;4.40;;;3.90;;
7177;SDS011;3630;42.146;24.756;2023-03-01T01:31:01;4.63;;;4.23;;
7177;SDS011;3630;42.146;24.756;2023-03-01T01:33:29;5.37;;;4.53;;
7177;SDS011;3630;42.146;24.756;2023-03-01T01:35:55;4.27;;;3.97;;
7177;SDS011;3630;42.146;24.756;2023-03-01T01:38:23;5.10;;;4.63;;
7177;SDS011;3630;42.146;24.756;2023-03-01T01:40:50;5.10;;;4.70;;
7177;SDS011;3630;42.146;24.756;2023-03-01T01:43:21;4.17;;;3.87;;
7177;SDS011;3630;42.146;24.756;2023-03-01T01:45:51;4.47;;;4.07;;
7177;SDS011;3630;42.146;24.756;2023-03-01T01:48:21;4.80;;;4.40;;
7177;SDS011;3630;42.146;24.756;2023-03-01T01:50:53;5.00;;;4.40;;
7177;SDS011;3630;42.146;24.756;2023-03-01T01:53:23;5.30;;;4.80;;
7177;SDS011;3630;42.146;24.756;2023-03-01T01:55:51;5.13;;;4.63;;
7177;SDS011;3630;42.146;24.756;2023-03-01T01:58:22;5.13;;;4.63;;
7177;SDS011;3630;42.146;24.756;2023-03-01T02:00:54;4.70;;;4.30;;
7177;SDS011;3630;42.146;24.756;2023-03-01T02:03:23;6.30;;;4.90;;
7177;SDS011;3630;42.146;24.756;2023-03-01T02:05:56;5.00;;;4.53;;
7177;SDS011;3630;42.146;24.756;2023-03-01T02:08:27;5.07;;;4.57;;
7177;SDS011;3630;42.146;24.756;2023-03-01T02:10:57;5.47;;;4.97;;
7177;SDS011;3630;42.146;24.756;2023-03-01T02:13:26;5.87;;;5.30;;
7177;SDS011;3630;42.146;24.756;2023-03-01T02:15:54;5.50;;;5.00;;
7177;SDS011;3630;42.146;24.756;2023-03-01T02:18:21;4.93;;;4.53;;
7177;SDS011;3630;42.146;24.756;2023-03-01T02:20:54;5.17;;;4.70;;
7177;SDS011;3630;42.146;24.756;2023-03-01T02:23:39;5.60;;;5.10;;
7177;SDS011;3630;42.146;24.756;2023-03-01T02:26:09;5.03;;;4.57;;
7177;SDS011;3630;42.146;24.756;2023-03-01T02:28:44;5.03;;;4.63;;
7177;SDS011;3630;42.146;24.756;2023-03-01T02:31:14;5.67;;;5.07;;
7177;SDS011;3630;42.146;24.756;2023-03-01T02:34:00;4.87;;;4.37;;
7177;SDS011;3630;42.146;24.756;2023-03-01T02:36:30;4.97;;;4.50;;
7177;SDS011;3630;42.146;24.756;2023-03-01T02:39:07;4.87;;;4.47;;
7177;SDS011;3630;42.146;24.756;2023-03-01T02:41:39;4.90;;;4.50;;
7177;SDS011;3630;42.146;24.756;2023-03-01T02:44:10;4.63;;;4.23;;
7177;SDS011;3630;42.146;24.756;2023-03-01T02:46:41;5.20;;;4.70;;
7177;SDS011;3630;42.146;24.756;2023-03-01T02:49:20;4.83;;;4.43;;
7177;SDS011;3630;42.146;24.756;2023-03-01T02:51:54;4.23;;;3.93;;
7177;SDS011;3630;42.146;24.756;2023-03-01T02:54:31;6.70;;;4.43;;
7177;SDS011;3630;42.146;24.756;2023-03-01T02:57:02;4.37;;;3.97;;
7177;SDS011;3630;42.146;24.756;2023-03-01T02:59:31;4.80;;;4.00;;
7177;SDS011;3630;42.146;24.756;2023-03-01T03:02:04;4.47;;;4.03;;
7177;SDS011;3630;42.146;24.756;2023-03-01T03:04:31;5.00;;;4.50;;
7177;SDS011;3630;42.146;24.756;2023-03-01T03:06:58;7.13;;;4.43;;
7177;SDS011;3630;42.146;24.756;2023-03-01T03:09:25;4.80;;;4.33;;
7177;SDS011;3630;42.146;24.756;2023-03-01T03:11:52;5.03;;;4.63;;
7177;SDS011;3630;42.146;24.756;2023-03-01T03:14:18;5.67;;;5.10;;
7177;SDS011;3630;42.146;24.756;2023-03-01T03:16:47;4.83;;;4.33;;
7177;SDS011;3630;42.146;24.756;2023-03-01T03:19:16;5.43;;;4.13;;
7177;SDS011;3630;42.146;24.756;2023-03-01T03:21:42;5.10;;;4.60;;
7177;SDS011;3630;42.146;24.756;2023-03-01T03:24:09;4.90;;;4.30;;
7177;SDS011;3630;42.146;24.756;2023-03-01T03:26:36;5.43;;;4.83;;
7177;SDS011;3630;42.146;24.756;2023-03-01T03:29:03;5.17;;;4.67;;
7177;SDS011;3630;42.146;24.756;2023-03-01T03:31:30;5.40;;;4.87;;
7177;SDS011;3630;42.146;24.756;2023-03-01T03:33:58;4.90;;;4.50;;
7177;SDS011;3630;42.146;24.756;2023-03-01T03:36:25;5.07;;;4.67;;
7177;SDS011;3630;42.146;24.756;2023-03-01T03:38:52;5.40;;;5.00;;
7177;SDS011;3630;42.146;24.756;2023-03-01T03:41:19;6.60;;;5.20;;
7177;SDS011;3630;42.146;24.756;2023-03-01T03:43:45;5.53;;;4.93;;
7177;SDS011;3630;42.146;24.756;2023-03-01T03:46:14;6.17;;;5.67;;
7177;SDS011;3630;42.146;24.756;2023-03-01T03:48:43;6.13;;;5.53;;
7177;SDS011;3630;42.146;24.756;2023-03-01T03:51:12;5.30;;;4.80;;
7177;SDS011;3630;42.146;24.756;2023-03-01T03:53:40;5.50;;;5.00;;
7177;SDS011;3630;42.146;24.756;2023-03-01T03:56:08;5.57;;;4.93;;
7177;SDS011;3630;42.146;24.756;2023-03-01T03:58:36;5.60;;;5.10;;
7177;SDS011;3630;42.146;24.756;2023-03-01T04:01:03;7.23;;;5.70;;
7177;SDS011;3630;42.146;24.756;2023-03-01T04:03:30;5.30;;;4.80;;
7177;SDS011;3630;42.146;24.756;2023-03-01T04:05:58;4.80;;;4.40;;
7177;SDS011;3630;42.146;24.756;2023-03-01T04:08:28;5.27;;;4.77;;
7177;SDS011;3630;42.146;24.756;2023-03-01T04:10:57;4.77;;;4.27;;
7177;SDS011;3630;42.146;24.756;2023-03-01T04:13:25;4.60;;;4.20;;
7177;SDS011;3630;42.146;24.756;2023-03-01T04:15:53;4.90;;;4.50;;
7177;SDS011;3630;42.146;24.756;2023-03-01T04:18:21;5.27;;;4.77;;
7177;SDS011;3630;42.146;24.756;2023-03-01T04:20:49;5.57;;;5.07;;
7177;SDS011;3630;42.146;24.756;2023-03-01T04:23:17;5.00;;;4.50;;
7177;SDS011;3630;42.146;24.756;2023-03-01T04:25:47;5.70;;;5.20;;
7177;SDS011;3630;42.146;24.756;2023-03-01T04:28:18;5.67;;;4.77;;
7177;SDS011;3630;42.146;24.756;2023-03-01T04:30:45;5.93;;;5.37;;
7177;SDS011;3630;42.146;24.756;2023-03-01T04:33:12;5.60;;;5.10;;
7177;SDS011;3630;42.146;24.756;2023-03-01T04:35:39;5.40;;;4.63;;
7177;SDS011;3630;42.146;24.756;2023-03-01T04:38:06;5.43;;;4.93;;
7177;SDS011;3630;42.146;24.756;2023-03-01T04:40:33;5.33;;;4.83;;
7177;SDS011;3630;42.146;24.756;2023-03-01T04:43:02;5.43;;;4.93;;
7177;SDS011;3630;42.146;24.756;2023-03-01T04:45:31;5.33;;;4.93;;
7177;SDS011;3630;42.146;24.756;2023-03-01T04:47:59;5.83;;;5.20;;
7177;SDS011;3630;42.146;24.756;2023-03-01T04:50:26;5.50;;;5.00;;
7177;SDS011;3630;42.146;24.756;2023-03-01T04:52:53;5.47;;;4.97;;
7177;SDS011;3630;42.146;24.756;2023-03-01T04:55:23;6.17;;;5.57;;
7177;SDS011;3630;42.146;24.756;2023-03-01T04:57:51;5.73;;;5.23;;
7177;SDS011;3630;42.146;24.756;2023-03-01T05:00:19;6.37;;;5.87;;
7177;SDS011;3630;42.146;24.756;2023-03-01T05:02:47;6.13;;;5.60;;
7177;SDS011;3630;42.146;24.756;2023-03-01T05:05:18;6.77;;;6.17;;
7177;SDS011;3630;42.146;24.756;2023-03-01T05:07:50;5.97;;;5.43;;
7177;SDS011;3630;42.146;24.756;2023-03-01T05:10:18;6.07;;;5.50;;
7177;SDS011;3630;42.146;24.756;2023-03-01T05:12:45;7.17;;;5.90;;
7177;SDS011;3630;42.146;24.756;2023-03-01T05:15:12;5.93;;;5.27;;
7177;SDS011;3630;42.146;24.756;2023-03-01T05:17:40;7.00;;;5.43;;
7177;SDS011;3630;42.146;24.756;2023-03-01T05:20:08;6.63;;;5.60;;
7177;SDS011;3630;42.146;24.756;2023-03-01T05:22:36;6.30;;;5.77;;
7177;SDS011;3630;42.146;24.756;2023-03-01T05:25:03;7.20;;;5.80;;
7177;SDS011;3630;42.146;24.756;2023-03-01T05:27:32;6.07;;;5.53;;
7177;SDS011;3630;42.146;24.756;2023-03-01T05:29:59;6.70;;;5.80;;
7177;SDS011;3630;42.146;24.756;2023-03-01T05:32:38;6.90;;;6.30;;
7177;SDS011;3630;42.146;24.756;2023-03-01T05:35:10;8.03;;;6.40;;
7177;SDS011;3630;42.146;24.756;2023-03-01T05:37:40;7.57;;;6.83;;
7177;SDS011;3630;42.146;24.756;2023-03-01T05:40:09;6.63;;;6.07;;
7177;SDS011;3630;42.146;24.756;2023-03-01T05:42:43;6.87;;;6.27;;
7177;SDS011;3630;42.146;24.756;2023-03-01T05:45:10;7.50;;;6.40;;
7177;SDS011;3630;42.146;24.756;2023-03-01T05:47:38;8.33;;;6.87;;
7177;SDS011;3630;42.146;24.756;2023-03-01T05:50:10;7.73;;;6.30;;
7177;SDS011;3630;42.146;24.756;2023-03-01T05:52:38;7.87;;;7.00;;
7177;SDS011;3630;42.146;24.756;2023-03-01T05:55:06;7.00;;;6.30;;
7177;SDS011;3630;42.146;24.756;2023-03-01T05:57:33;7.47;;;6.77;;
7177;SDS011;3630;42.146;24.756;2023-03-01T06:00:00;7.70;;;7.00;;
7177;SDS011;3630;42.146;24.756;2023-03-01T06:02:27;7.60;;;6.90;;
7177;SDS011;3630;42.146;24.756;2023-03-01T06:04:54;6.43;;;5.83;;
7177;SDS011;3630;42.146;24.756;2023-03-01T06:07:22;7.03;;;6.37;;
7177;SDS011;3630;42.146;24.756;2023-03-01T06:09:49;6.23;;;5.67;;
7177;SDS011;3630;42.146;24.756;2023-03-01T06:12:16;6.77;;;6.17;;
7177;SDS011;3630;42.146;24.756;2023-03-01T06:14:43;8.10;;;7.40;;
7177;SDS011;3630;42.146;24.756;2023-03-01T06:17:11;7.80;;;7.10;;
7177;SDS011;3630;42.146;24.756;2023-03-01T06:19:38;8.17;;;6.83;;
7177;SDS011;3630;42.146;24.756;2023-03-01T06:22:05;7.57;;;6.83;;
7177;SDS011;3630;42.146;24.756;2023-03-01T06:24:33;6.90;;;6.30;;
7177;SDS011;3630;42.146;24.756;2023-03-01T06:27:00;8.13;;;7.33;;
7177;SDS011;3630;42.146;24.756;2023-03-01T06:29:27;9.93;;;7.60;;
7177;SDS011;3630;42.146;24.756;2023-03-01T06:31:54;10.90;;;7.83;;
7177;SDS011;3630;42.146;24.756;2023-03-01T06:34:21;8.57;;;7.67;;
7177;SDS011;3630;42.146;24.756;2023-03-01T06:36:48;11.43;;;7.73;;
7177;SDS011;3630;42.146;24.756;2023-03-01T06:39:15;7.13;;;6.43;;
7177;SDS011;3630;42.146;24.756;2023-03-01T06:41:44;6.80;;;6.20;;
7177;SDS011;3630;42.146;24.756;2023-03-01T06:44:11;6.53;;;5.53;;
7177;SDS011;3630;42.146;24.756;2023-03-01T06:46:38;5.07;;;4.57;;
7177;SDS011;3630;42.146;24.756;2023-03-01T06:49:05;4.80;;;4.40;;
7177;SDS011;3630;42.146;24.756;2023-03-01T06:51:34;5.13;;;4.63;;
7177;SDS011;3630;42.146;24.756;2023-03-01T06:54:02;5.63;;;5.13;;
7177;SDS011;3630;42.146;24.756;2023-03-01T06:56:29;5.97;;;5.10;;
7177;SDS011;3630;42.146;24.756;2023-03-01T06:58:57;4.93;;;4.53;;
7177;SDS011;3630;42.146;24.756;2023-03-01T07:01:24;5.43;;;5.03;;
7177;SDS011;3630;42.146;24.756;2023-03-01T07:03:51;4.90;;;4.50;;
7177;SDS011;3630;42.146;24.756;2023-03-01T07:06:18;6.27;;;5.67;;
7177;SDS011;3630;42.146;24.756;2023-03-01T07:08:45;5.47;;;4.97;;
7177;SDS011;3630;42.146;24.756;2023-03-01T07:11:11;5.40;;;4.90;;
7177;SDS011;3630;42.146;24.756;2023-03-01T07:13:38;5.00;;;4.50;;
7177;SDS011;3630;42.146;24.756;2023-03-01T07:16:07;6.50;;;5.00;;
7177;SDS011;3630;42.146;24.756;2023-03-01T07:18:34;12.63;;;4.40;;
7177;SDS011;3630;42.146;24.756;2023-03-01T07:21:03;6.47;;;5.27;;
7177;SDS011;3630;42.146;24.756;2023-03-01T07:23:31;5.07;;;4.57;;
7177;SDS011;3630;42.146;24.756;2023-03-01T07:25:57;13.93;;;10.95;;
7177;SDS011;3630;42.146;24.756;2023-03-01T07:28:25;11.97;;;9.13;;
7177;SDS011;3630;42.146;24.756;2023-03-01T07:30:52;13.10;;;8.97;;
7177;SDS011;3630;42.146;24.756;2023-03-01T07:33:21;8.33;;;5.70;;
7177;SDS011;3630;42.146;24.756;2023-03-01T07:35:47;9.47;;;6.37;;
7177;SDS011;3630;42.146;24.756;2023-03-01T07:38:14;7.20;;;5.40;;
7177;SDS011;3630;42.146;24.756;2023-03-01T07:40:41;6.00;;;4.50;;
7177;SDS011;3630;42.146;24.756;2023-03-01T07:43:08;4.13;;;3.73;;
7177;SDS011;3630;42.146;24.756;2023-03-01T07:45:35;4.97;;;4.40;;
7177;SDS011;3630;42.146;24.756;2023-03-01T07:48:01;4.97;;;4.40;;
7177;SDS011;3630;42.146;24.756;2023-03-01T07:50:30;6.60;;;5.17;;
7177;SDS011;3630;42.146;24.756;2023-03-01T07:52:57;5.30;;;4.47;;
7177;SDS011;3630;42.146;24.756;2023-03-01T07:55:24;7.77;;;4.63;;
7177;SDS011;3630;42.146;24.756;2023-03-01T07:57:50;4.53;;;4.03;;
7177;SDS011;3630;42.146;24.756;2023-03-01T08:00:17;5.67;;;4.40;;
7177;SDS011;3630;42.146;24.756;2023-03-01T08:02:45;6.67;;;5.40;;
7177;SDS011;3630;42.146;24.756;2023-03-01T08:05:12;6.63;;;5.33;;
7177;SDS011;3630;42.146;24.756;2023-03-01T08:07:40;5.00;;;4.50;;
7177;SDS011;3630;42.146;24.756;2023-03-01T08:10:07;6.03;;;3.80;;
7177;SDS011;3630;42.146;24.756;2023-03-01T08:12:35;4.73;;;4.00;;
7177;SDS011;3630;42.146;24.756;2023-03-01T08:15:02;6.40;;;4.40;;
7177;SDS011;3630;42.146;24.756;2023-03-01T08:17:29;9.30;;;4.47;;
7177;SDS011;3630;42.146;24.756;2023-03-01T08:19:55;4.60;;;3.93;;
7177;SDS011;3630;42.146;24.756;2023-03-01T08:22:22;25.77;;;13.27;;
7177;SDS011;3630;42.146;24.756;2023-03-01T08:24:51;12.37;;;7.70;;
7177;SDS011;3630;42.146;24.756;2023-03-01T08:27:17;9.73;;;6.43;;
7177;SDS011;3630;42.146;24.756;2023-03-01T08:29:44;6.90;;;5.10;;
7177;SDS011;3630;42.146;24.756;2023-03-01T08:32:11;17.67;;;8.97;;
7177;SDS011;3630;42.146;24.756;2023-03-01T08:34:38;13.33;;;7.07;;
7177;SDS011;3630;42.146;24.756;2023-03-01T08:37:05;5.23;;;4.17;;
7177;SDS011;3630;42.146;24.756;2023-03-01T08:39:32;13.70;;;8.00;;
7177;SDS011;3630;42.146;24.756;2023-03-01T08:42:00;6.20;;;4.33;;
7177;SDS011;3630;42.146;24.756;2023-03-01T08:44:27;6.37;;;5.30;;
7177;SDS011;3630;42.146;24.756;2023-03-01T08:46:53;14.30;;;7.60;;
7177;SDS011;3630;42.146;24.756;2023-03-01T08:49:21;13.07;;;7.17;;
7177;SDS011;3630;42.146;24.756;2023-03-01T08:51:48;12.10;;;6.13;;
7177;SDS011;3630;42.146;24.756;2023-03-01T08:54:16;8.57;;;4.90;;
7177;SDS011;3630;42.146;24.756;2023-03-01T08:56:44;7.30;;;5.40;;
7177;SDS011;3630;42.146;24.756;2023-03-01T08:59:14;16.80;;;7.57;;
7177;SDS011;3630;42.146;24.756;2023-03-01T09:01:42;12.53;;;8.17;;
7177;SDS011;3630;42.146;24.756;2023-03-01T09:04:09;8.60;;;4.33;;
7177;SDS011;3630;42.146;24.756;2023-03-01T09:06:36;6.07;;;3.93;;
7177;SDS011;3630;42.146;24.756;2023-03-01T09:09:04;7.13;;;4.47;;
7177;SDS011;3630;42.146;24.756;2023-03-01T09:11:31;3.30;;;3.00;;
7177;SDS011;3630;42.146;24.756;2023-03-01T09:13:58;3.67;;;3.37;;
7177;SDS011;3630;42.146;24.756;2023-03-01T09:16:27;6.47;;;3.73;;
7177;SDS011;3630;42.146;24.756;2023-03-01T09:18:54;5.23;;;4.23;;
7177;SDS011;3630;42.146;24.756;2023-03-01T09:21:22;7.50;;;4.50;;
7177;SDS011;3630;42.146;24.756;2023-03-01T09:23:49;3.90;;;3.50;;
7177;SDS011;3630;42.146;24.756;2023-03-01T09:26:18;4.97;;;3.43;;
7177;SDS011;3630;42.146;24.756;2023-03-01T09:28:47;3.37;;;3.07;;
7177;SDS011;3630;42.146;24.756;2023-03-01T09:31:14;4.83;;;3.20;;
7177;SDS011;3630;42.146;24.756;2023-03-01T09:33:45;2.93;;;2.73;;
7177;SDS011;3630;42.146;24.756;2023-03-01T09:36:14;5.63;;;3.87;;
7177;SDS011;3630;42.146;24.756;2023-03-01T09:38:42;3.33;;;3.03;;
7177;SDS011;3630;42.146;24.756;2023-03-01T09:41:09;2.77;;;2.40;;
7177;SDS011;3630;42.146;24.756;2023-03-01T09:43:40;3.60;;;2.57;;
7177;SDS011;3630;42.146;24.756;2023-03-01T09:46:11;3.10;;;2.90;;
7177;SDS011;3630;42.146;24.756;2023-03-01T09:48:42;4.20;;;3.80;;
7177;SDS011;3630;42.146;24.756;2023-03-01T09:51:14;4.83;;;4.33;;
7177;SDS011;3630;42.146;24.756;2023-03-01T09:53:44;4.80;;;4.10;;
7177;SDS011;3630;42.146;24.756;2023-03-01T09:56:12;5.03;;;4.30;;
7177;SDS011;3630;42.146;24.756;2023-03-01T09:58:47;4.70;;;3.80;;
7177;SDS011;3630;42.146;24.756;2023-03-01T10:01:25;8.93;;;5.30;;
7177;SDS011;3630;42.146;24.756;2023-03-01T10:04:03;4.83;;;4.13;;
7177;SDS011;3630;42.146;24.756;2023-03-01T10:06:37;4.90;;;4.37;;
7177;SDS011;3630;42.146;24.756;2023-03-01T10:09:10;4.60;;;4.03;;
7177;SDS011;3630;42.146;24.756;2023-03-01T10:11:41;4.60;;;4.20;;
7177;SDS011;3630;42.146;24.756;2023-03-01T10:14:15;4.63;;;4.20;;
7177;SDS011;3630;42.146;24.756;2023-03-01T10:16:51;5.50;;;3.50;;
7177;SDS011;3630;42.146;24.756;2023-03-01T10:19:25;3.03;;;2.73;;
7177;SDS011;3630;42.146;24.756;2023-03-01T10:21:57;4.37;;;2.93;;
7177;SDS011;3630;42.146;24.756;2023-03-01T10:24:31;3.23;;;2.80;;
7177;SDS011;3630;42.146;24.756;2023-03-01T10:27:01;2.57;;;2.37;;
7177;SDS011;3630;42.146;24.756;2023-03-01T10:29:35;3.40;;;3.13;;
7177;SDS011;3630;42.146;24.756;2023-03-01T10:32:08;4.30;;;3.87;;
7177;SDS011;3630;42.146;24.756;2023-03-01T10:34:37;4.03;;;3.60;;
7177;SDS011;3630;42.146;24.756;2023-03-01T10:37:08;5.40;;;4.90;;
7177;SDS011;3630;42.146;24.756;2023-03-01T10:39:37;4.10;;;3.70;;
7177;SDS011;3630;42.146;24.756;2023-03-01T10:42:22;5.13;;;3.93;;
7177;SDS011;3630;42.146;24.756;2023-03-01T10:44:53;3.13;;;2.83;;
7177;SDS011;3630;42.146;24.756;2023-03-01T10:47:21;3.17;;;2.87;;
7177;SDS011;3630;42.146;24.756;2023-03-01T10:49:56;3.63;;;3.13;;
7177;SDS011;3630;42.146;24.756;2023-03-01T10:52:26;4.28;;;3.00;;
7177;SDS011;3630;42.146;24.756;2023-03-01T10:54:56;3.37;;;2.90;;
7177;SDS011;3630;42.146;24.756;2023-03-01T10:57:27;3.40;;;3.10;;
7177;SDS011;3630;42.146;24.756;2023-03-01T11:00:00;2.73;;;2.53;;
7177;SDS011;3630;42.146;24.756;2023-03-01T11:02:42;4.10;;;2.67;;
7177;SDS011;3630;42.146;24.756;2023-03-01T11:05:16;3.20;;;2.90;;
7177;SDS011;3630;42.146;24.756;2023-03-01T11:07:48;5.87;;;3.23;;
7177;SDS011;3630;42.146;24.756;2023-03-01T11:10:17;6.37;;;3.93;;
7177;SDS011;3630;42.146;24.756;2023-03-01T11:12:45;5.43;;;4.93;;
7177;SDS011;3630;42.146;24.756;2023-03-01T11:15:20;4.23;;;3.83;;
7177;SDS011;3630;42.146;24.756;2023-03-01T11:17:49;5.13;;;4.13;;
7177;SDS011;3630;42.146;24.756;2023-03-01T11:20:20;6.10;;;3.30;;
7177;SDS011;3630;42.146;24.756;2023-03-01T11:22:52;4.23;;;2.90;;
7177;SDS011;3630;42.146;24.756;2023-03-01T11:25:23;3.23;;;2.93;;
7177;SDS011;3630;42.146;24.756;2023-03-01T11:27:52;2.73;;;2.50;;
7177;SDS011;3630;42.146;24.756;2023-03-01T11:30:23;6.93;;;2.40;;
7177;SDS011;3630;42.146;24.756;2023-03-01T11:33:03;3.30;;;2.70;;
7177;SDS011;3630;42.146;24.756;2023-03-01T11:35:41;3.20;;;2.90;;
7177;SDS011;3630;42.146;24.756;2023-03-01T11:38:15;6.13;;;3.00;;
7177;SDS011;3630;42.146;24.756;2023-03-01T11:40:46;3.73;;;3.43;;
7177;SDS011;3630;42.146;24.756;2023-03-01T11:43:19;4.40;;;3.80;;
7177;SDS011;3630;42.146;24.756;2023-03-01T11:46:18;3.80;;;3.47;;
7177;SDS011;3630;42.146;24.756;2023-03-01T11:49:17;3.10;;;2.87;;
7177;SDS011;3630;42.146;24.756;2023-03-01T11:52:11;3.67;;;3.37;;
7177;SDS011;3630;42.146;24.756;2023-03-01T11:54:50;3.57;;;3.27;;
7177;SDS011;3630;42.146;24.756;2023-03-01T11:57:34;3.27;;;2.97;;
7177;SDS011;3630;42.146;24.756;2023-03-01T12:00:21;3.20;;;2.90;;
7177;SDS011;3630;42.146;24.756;2023-03-01T12:03:09;3.72;;;3.33;;
7177;SDS011;3630;42.146;24.756;2023-03-01T12:06:14;3.60;;;3.30;;
7177;SDS011;3630;42.146;24.756;2023-03-01T12:08:56;6.07;;;3.03;;
7177;SDS011;3630;42.146;24.756;2023-03-01T12:11:35;4.17;;;3.77;;
7177;SDS011;3630;42.146;24.756;2023-03-01T12:17:24;4.53;;;3.53;;
7177;SDS011;3630;42.146;24.756;2023-03-01T12:20:12;5.47;;;4.83;;
7177;SDS011;3630;42.146;24.756;2023-03-01T12:22:51;7.93;;;5.37;;
7177;SDS011;3630;42.146;24.756;2023-03-01T12:25:32;6.23;;;4.93;;
7177;SDS011;3630;42.146;24.756;2023-03-01T12:28:20;6.63;;;5.07;;
7177;SDS011;3630;42.146;24.756;2023-03-01T12:31:08;3.93;;;3.63;;
7177;SDS011;3630;42.146;24.756;2023-03-01T12:33:52;4.83;;;3.13;;
7177;SDS011;3630;42.146;24.756;2023-03-01T12:39:18;5.17;;;4.10;;
7177;SDS011;3630;42.146;24.756;2023-03-01T12:42:03;4.33;;;3.90;;
7177;SDS011;3630;42.146;24.756;2023-03-01T12:44:41;5.13;;;4.30;;
7177;SDS011;3630;42.146;24.756;2023-03-01T12:47:27;7.90;;;6.47;;
7177;SDS011;3630;42.146;24.756;2023-03-01T12:50:10;7.63;;;6.83;;
7177;SDS011;3630;42.146;24.756;2023-03-01T12:52:40;10.13;;;7.57;;
7177;SDS011;3630;42.146;24.756;2023-03-01T12:55:18;9.00;;;7.13;;
7177;SDS011;3630;42.146;24.756;2023-03-01T12:57:53;8.23;;;7.10;;
7177;SDS011;3630;42.146;24.756;2023-03-01T13:00:28;7.87;;;7.00;;
7177;SDS011;3630;42.146;24.756;2023-03-01T13:03:05;5.00;;;4.60;;
7177;SDS011;3630;42.146;24.756;2023-03-01T13:05:40;3.67;;;3.37;;
7177;SDS011;3630;42.146;24.756;2023-03-01T13:08:14;3.70;;;3.40;;
7177;SDS011;3630;42.146;24.756;2023-03-01T13:10:47;3.50;;;3.20;;
7177;SDS011;3630;42.146;24.756;2023-03-01T13:13:21;4.10;;;3.80;;
7177;SDS011;3630;42.146;24.756;2023-03-01T13:15:49;3.70;;;3.40;;
7177;SDS011;3630;42.146;24.756;2023-03-01T13:18:30;4.07;;;3.60;;
7177;SDS011;3630;42.146;24.756;2023-03-01T13:20:59;6.80;;;4.33;;
7177;SDS011;3630;42.146;24.756;2023-03-01T13:23:28;3.83;;;3.53;;
7177;SDS011;3630;42.146;24.756;2023-03-01T13:26:02;4.27;;;3.87;;
7177;SDS011;3630;42.146;24.756;2023-03-01T13:34:40;8.37;;;4.60;;
7177;SDS011;3630;42.146;24.756;2023-03-01T13:37:31;5.37;;;3.70;;
7177;SDS011;3630;42.146;24.756;2023-03-01T13:40:01;5.03;;;3.80;;
7177;SDS011;3630;42.146;24.756;2023-03-01T13:42:52;4.40;;;3.57;;
7177;SDS011;3630;42.146;24.756;2023-03-01T13:45:22;3.60;;;3.30;;
7177;SDS011;3630;42.146;24.756;2023-03-01T13:47:59;6.07;;;4.20;;
7177;SDS011;3630;42.146;24.756;2023-03-01T13:50:32;6.90;;;4.60;;
7177;SDS011;3630;42.146;24.756;2023-03-01T13:53:04;6.40;;;4.47;;
7177;SDS011;3630;42.146;24.756;2023-03-01T13:55:36;5.70;;;4.83;;
7177;SDS011;3630;42.146;24.756;2023-03-01T13:58:14;5.33;;;4.63;;
7177;SDS011;3630;42.146;24.756;2023-03-01T14:00:47;6.43;;;5.13;;
7177;SDS011;3630;42.146;24.756;2023-03-01T14:03:15;4.83;;;4.43;;
7177;SDS011;3630;42.146;24.756;2023-03-01T14:05:43;5.23;;;4.73;;
7177;SDS011;3630;42.146;24.756;2023-03-01T14:08:24;6.70;;;5.10;;
7177;SDS011;3630;42.146;24.756;2023-03-01T14:10:54;7.63;;;5.90;;
7177;SDS011;3630;42.146;24.756;2023-03-01T14:13:40;6.67;;;5.60;;
7177;SDS011;3630;42.146;24.756;2023-03-01T14:16:23;5.80;;;5.33;;
7177;SDS011;3630;42.146;24.756;2023-03-01T14:19:02;7.63;;;5.57;;
7177;SDS011;3630;42.146;24.756;2023-03-01T14:21:41;7.37;;;6.67;;
7177;SDS011;3630;42.146;24.756;2023-03-01T14:24:14;10.53;;;7.43;;
7177;SDS011;3630;42.146;24.756;2023-03-01T14:26:43;8.97;;;7.07;;
7177;SDS011;3630;42.146;24.756;2023-03-01T14:29:23;10.73;;;9.63;;
7177;SDS011;3630;42.146;24.756;2023-03-01T14:31:52;7.83;;;7.03;;
7177;SDS011;3630;42.146;24.756;2023-03-01T14:34:19;14.70;;;6.83;;
7177;SDS011;3630;42.146;24.756;2023-03-01T14:36:47;13.30;;;6.83;;
7177;SDS011;3630;42.146;24.756;2023-03-01T14:39:18;12.57;;;8.27;;
7177;SDS011;3630;42.146;24.756;2023-03-01T14:41:47;29.77;;;13.10;;
7177;SDS011;3630;42.146;24.756;2023-03-01T14:44:15;22.57;;;10.70;;
7177;SDS011;3630;42.146;24.756;2023-03-01T14:46:51;35.77;;;14.90;;
7177;SDS011;3630;42.146;24.756;2023-03-01T14:49:21;25.53;;;11.90;;
7177;SDS011;3630;42.146;24.756;2023-03-01T14:51:52;25.43;;;11.20;;
7177;SDS011;3630;42.146;24.756;2023-03-01T14:54:21;39.07;;;15.00;;
7177;SDS011;3630;42.146;24.756;2023-03-01T14:56:52;18.40;;;10.30;;
7177;SDS011;3630;42.146;24.756;2023-03-01T14:59:21;24.13;;;13.00;;
7177;SDS011;3630;42.146;24.756;2023-03-01T15:01:49;22.90;;;13.00;;
7177;SDS011;3630;42.146;24.756;2023-03-01T15:04:19;24.33;;;11.13;;
7177;SDS011;3630;42.146;24.756;2023-03-01T15:06:47;13.73;;;8.97;;
7177;SDS011;3630;42.146;24.756;2023-03-01T15:09:17;9.13;;;6.17;;
7177;SDS011;3630;42.146;24.756;2023-03-01T15:11:45;12.97;;;8.07;;
7177;SDS011;3630;42.146;24.756;2023-03-01T15:14:28;9.13;;;7.33;;
7177;SDS011;3630;42.146;24.756;2023-03-01T15:17:04;10.27;;;7.97;;
7177;SDS011;3630;42.146;24.756;2023-03-01T15:19:41;9.20;;;8.27;;
7177;SDS011;3630;42.146;24.756;2023-03-01T15:22:13;8.77;;;7.80;;
7177;SDS011;3630;42.146;24.756;2023-03-01T15:24:41;6.87;;;5.77;;
7177;SDS011;3630;42.146;24.756;2023-03-01T15:27:14;13.67;;;8.73;;
7177;SDS011;3630;42.146;24.756;2023-03-01T15:29:47;7.63;;;6.40;;
7177;SDS011;3630;42.146;24.756;2023-03-01T15:32:24;7.27;;;6.57;;